Terminal Aerodrome Forecast
Issued by NWS

Home | Current Version | Previous Version | Text Only | Print | Product List | Glossary On
Versions: 1 2 3 4 5 6 7 8 9 10 11 12 13
000
FTUS44 KJAN 211128
TAFGTR
TAF
KGTR 211128Z 2112/2212 13004KT P6SM SKC
     FM211600 18005KT P6SM SKC
     FM212300 36003KT P6SM SKC=

USA.gov is the U.S. government's official web portal to all federal, state and local government web resources and services.